Time;durP1;ratioP1;P1;durP2;ratioP2;P2;SDS_P1;SDS_P2;PMS_P1;PMS_P2;Temp;Humidity;BMP_temperature;BMP_pressure;BME280_temperature;BME280_humidity;BME280_pressure;Samples;Min_cycle;Max_cycle;Signal;HPM_P1;HPM_P2
2023/07/14 00:01:19;;;;;;;8.93;7.40;;;;;;;;;;4923583;28;20057;-84
2023/07/14 00:03:45;;;;;;;10.07;7.20;;;;;;;;;;4926509;28;20059;-84
2023/07/14 00:06:12;;;;;;;8.40;7.60;;;;;;;;;;4935722;28;20066;-84
2023/07/14 00:08:39;;;;;;;9.27;7.88;;;;;;;;;;4930843;28;20046;-84
2023/07/14 00:11:25;;;;;;;9.35;7.82;;;;;;;;;;4933047;28;20133;-84
2023/07/14 00:13:52;;;;;;;10.25;7.85;;;;;;;;;;4949398;28;20051;-85
2023/07/14 00:16:22;;;;;;;10.88;8.43;;;;;;;;;;4950026;28;20069;-84
2023/07/14 00:18:48;;;;;;;9.68;7.63;;;;;;;;;;4949733;28;20045;-84
2023/07/14 00:21:18;;;;;;;9.68;8.75;;;;;;;;;;4933435;28;21082;-85
2023/07/14 00:23:44;;;;;;;10.10;7.90;;;;;;;;;;4940591;28;20042;-84
2023/07/14 00:26:20;;;;;;;9.75;7.68;;;;;;;;;;4931713;28;20042;-84
2023/07/14 00:28:49;;;;;;;8.63;7.78;;;;;;;;;;4951055;28;20050;-84
2023/07/14 00:31:23;;;;;;;11.85;8.55;;;;;;;;;;4926228;28;20097;-84
2023/07/14 00:33:50;;;;;;;10.63;8.75;;;;;;;;;;4966607;28;20051;-84
2023/07/14 00:36:20;;;;;;;9.30;8.40;;;;;;;;;;4932515;28;20065;-84
2023/07/14 00:38:47;;;;;;;9.80;8.80;;;;;;;;;;4967390;28;20050;-85
2023/07/14 00:41:20;;;;;;;10.02;8.77;;;;;;;;;;4955811;28;20542;-84
2023/07/14 00:43:46;;;;;;;9.32;8.30;;;;;;;;;;4964453;28;20041;-85
2023/07/14 00:46:22;;;;;;;12.80;8.82;;;;;;;;;;4940919;28;20391;-85
2023/07/14 00:48:48;;;;;;;9.93;8.65;;;;;;;;;;4974003;28;20428;-84
2023/07/14 00:51:14;;;;;;;12.07;9.48;;;;;;;;;;4958085;28;22453;-84
2023/07/14 00:53:43;;;;;;;10.27;9.27;;;;;;;;;;4959613;28;20045;-84
2023/07/14 00:56:12;;;;;;;10.68;9.57;;;;;;;;;;4965053;28;20160;-85
2023/07/14 00:58:42;;;;;;;10.18;9.07;;;;;;;;;;4970617;28;20460;-84
2023/07/14 01:01:11;;;;;;;11.90;9.20;;;;;;;;;;4973563;28;20034;-84
2023/07/14 01:03:41;;;;;;;12.43;9.85;;;;;;;;;;4976484;28;20099;-84
2023/07/14 01:06:11;;;;;;;12.05;9.75;;;;;;;;;;4949950;28;20805;-84
2023/07/14 01:08:38;;;;;;;12.60;11.38;;;;;;;;;;4955734;28;20129;-85
2023/07/14 01:11:04;;;;;;;13.05;11.75;;;;;;;;;;4947795;28;20056;-85
2023/07/14 01:13:30;;;;;;;13.27;11.05;;;;;;;;;;4945651;28;20037;-84
2023/07/14 01:15:56;;;;;;;13.10;11.70;;;;;;;;;;4972501;28;20121;-84
2023/07/14 01:18:22;;;;;;;14.55;11.73;;;;;;;;;;4959202;28;20092;-84
2023/07/14 01:20:48;;;;;;;12.13;10.93;;;;;;;;;;4976512;28;20045;-84
2023/07/14 01:23:21;;;;;;;15.00;12.85;;;;;;;;;;4953609;28;20593;-84
2023/07/14 01:25:47;;;;;;;15.00;12.45;;;;;;;;;;4940039;28;20491;-84
2023/07/14 01:28:14;;;;;;;16.10;13.25;;;;;;;;;;4966590;28;20045;-85
2023/07/14 01:30:40;;;;;;;15.07;12.70;;;;;;;;;;4971290;28;20074;-85
2023/07/14 01:33:10;;;;;;;15.73;12.90;;;;;;;;;;4954778;28;20581;-84
2023/07/14 01:35:38;;;;;;;13.68;12.27;;;;;;;;;;4955066;28;20042;-84
2023/07/14 01:38:04;;;;;;;14.43;11.90;;;;;;;;;;4967421;28;20042;-85
2023/07/14 01:40:31;;;;;;;14.48;12.10;;;;;;;;;;4956724;28;20048;-85
2023/07/14 01:42:58;;;;;;;14.70;11.95;;;;;;;;;;4920028;28;20051;-84
2023/07/14 01:45:24;;;;;;;13.73;12.05;;;;;;;;;;4941324;28;20069;-84
2023/07/14 01:47:52;;;;;;;13.77;12.40;;;;;;;;;;4937822;28;20053;-84
2023/07/14 01:50:22;;;;;;;14.23;11.93;;;;;;;;;;4944975;28;20046;-84
2023/07/14 01:52:49;;;;;;;13.80;12.38;;;;;;;;;;4952141;28;20043;-84
2023/07/14 01:55:15;;;;;;;14.30;12.85;;;;;;;;;;4936131;28;20050;-85
2023/07/14 01:57:41;;;;;;;15.27;12.23;;;;;;;;;;4940660;28;20085;-85
2023/07/14 02:00:11;;;;;;;13.40;12.00;;;;;;;;;;4941907;28;20038;-84
2023/07/14 02:02:37;;;;;;;14.32;12.77;;;;;;;;;;4932623;28;20078;-84
2023/07/14 02:05:06;;;;;;;20.17;13.65;;;;;;;;;;4938176;28;20057;-84
2023/07/14 02:07:32;;;;;;;14.75;12.70;;;;;;;;;;4948035;28;20038;-84
2023/07/14 02:09:58;;;;;;;15.75;13.15;;;;;;;;;;4946441;28;20049;-84
2023/07/14 02:12:26;;;;;;;15.55;13.23;;;;;;;;;;4951999;28;20048;-85
2023/07/14 02:14:52;;;;;;;;;;;;;;;;;;4957509;28;20038;-84
2023/07/14 02:17:24;;;;;;;13.70;12.40;;;;;;;;;;4951981;28;19975;-84
2023/07/14 02:19:50;;;;;;;15.30;12.48;;;;;;;;;;4952802;28;20053;-84
2023/07/14 02:22:16;;;;;;;14.48;12.82;;;;;;;;;;4938344;28;20045;-84
2023/07/14 02:24:42;;;;;;;14.57;12.38;;;;;;;;;;4934888;28;20051;-84
2023/07/14 02:27:09;;;;;;;14.43;13.00;;;;;;;;;;4922696;28;20042;-84
2023/07/14 02:29:35;;;;;;;14.57;12.23;;;;;;;;;;4935087;28;20061;-84
2023/07/14 02:32:04;;;;;;;13.75;12.10;;;;;;;;;;4945459;28;20201;-84
2023/07/14 02:34:32;;;;;;;14.45;12.95;;;;;;;;;;4938566;28;20380;-84
2023/07/14 02:36:58;;;;;;;13.38;12.00;;;;;;;;;;4929121;28;20085;-85
2023/07/14 02:39:25;;;;;;;14.00;12.50;;;;;;;;;;4939011;28;20390;-85
2023/07/14 02:41:53;;;;;;;14.85;13.35;;;;;;;;;;4963671;28;20196;-85
2023/07/14 02:44:20;;;;;;;14.60;11.25;;;;;;;;;;4982389;28;20049;-85
2023/07/14 02:46:54;;;;;;;14.98;11.95;;;;;;;;;;4950523;28;20039;-85
2023/07/14 02:49:20;;;;;;;14.82;12.10;;;;;;;;;;4934739;28;20042;-85
2023/07/14 02:51:46;;;;;;;12.77;11.68;;;;;;;;;;4961419;28;20045;-84
2023/07/14 02:54:12;;;;;;;13.98;11.35;;;;;;;;;;4958865;28;20044;-84
2023/07/14 02:56:39;;;;;;;14.77;12.07;;;;;;;;;;4948618;28;20646;-85
2023/07/14 02:59:05;;;;;;;11.95;10.73;;;;;;;;;;4977960;28;20459;-84
2023/07/14 03:01:32;;;;;;;13.82;10.65;;;;;;;;;;4939579;28;20045;-84
2023/07/14 03:03:59;;;;;;;11.43;10.20;;;;;;;;;;4961877;28;20393;-84
2023/07/14 03:06:25;;;;;;;13.02;10.93;;;;;;;;;;4948515;28;20077;-85
2023/07/14 03:08:51;;;;;;;13.63;11.45;;;;;;;;;;4964670;28;20046;-85
2023/07/14 03:11:18;;;;;;;12.07;10.88;;;;;;;;;;4940839;28;20482;-85
2023/07/14 03:13:46;;;;;;;13.38;10.48;;;;;;;;;;4962776;28;20042;-84
2023/07/14 03:16:12;;;;;;;13.65;11.73;;;;;;;;;;4961059;28;20398;-84
2023/07/14 03:18:38;;;;;;;13.02;11.07;;;;;;;;;;4970639;28;20493;-85
2023/07/14 03:21:04;;;;;;;13.52;10.25;;;;;;;;;;4967533;28;20463;-84
2023/07/14 03:23:30;;;;;;;11.40;9.70;;;;;;;;;;4966268;28;20092;-84
2023/07/14 03:26:01;;;;;;;10.20;8.55;;;;;;;;;;4951078;28;20053;-84
2023/07/14 03:28:27;;;;;;;10.27;9.32;;;;;;;;;;4972255;28;20045;-84
2023/07/14 03:30:57;;;;;;;11.18;9.82;;;;;;;;;;4952433;28;20050;-84
2023/07/14 03:33:23;;;;;;;11.38;10.18;;;;;;;;;;4959358;28;20045;-84
2023/07/14 03:35:49;;;;;;;10.63;9.55;;;;;;;;;;4965381;28;20054;-84
2023/07/14 03:38:15;;;;;;;11.50;10.30;;;;;;;;;;4942630;28;20547;-85
2023/07/14 03:40:42;;;;;;;12.25;9.35;;;;;;;;;;4959885;28;20062;-85
2023/07/14 03:43:08;;;;;;;10.77;9.65;;;;;;;;;;4944047;28;20050;-85
2023/07/14 03:45:34;;;;;;;11.52;10.32;;;;;;;;;;4951221;28;20046;-84
2023/07/14 03:48:00;;;;;;;12.48;10.70;;;;;;;;;;4958537;28;20371;-85
2023/07/14 03:50:26;;;;;;;11.55;9.68;;;;;;;;;;4952479;28;20397;-84
2023/07/14 03:52:54;;;;;;;13.27;10.05;;;;;;;;;;4948605;28;20512;-84
2023/07/14 03:55:20;;;;;;;11.23;10.02;;;;;;;;;;4964945;28;20144;-84
2023/07/14 03:57:46;;;;;;;10.80;9.70;;;;;;;;;;4938045;28;20038;-84
2023/07/14 04:00:14;;;;;;;12.35;9.88;;;;;;;;;;4958487;28;20038;-84
2023/07/14 04:02:40;;;;;;;12.10;9.57;;;;;;;;;;4918523;28;20462;-84
2023/07/14 04:05:07;;;;;;;12.32;10.68;;;;;;;;;;4913508;28;20404;-84
2023/07/14 04:07:33;;;;;;;10.93;9.63;;;;;;;;;;4920725;28;20142;-84
2023/07/14 04:09:59;;;;;;;12.70;10.35;;;;;;;;;;4941811;28;20046;-84
2023/07/14 04:12:25;;;;;;;12.80;10.30;;;;;;;;;;4961175;28;20132;-85
2023/07/14 04:14:52;;;;;;;10.93;9.68;;;;;;;;;;4964193;28;20050;-84
2023/07/14 04:17:18;;;;;;;13.00;10.57;;;;;;;;;;4962389;28;20038;-84
2023/07/14 04:19:44;;;;;;;11.25;10.15;;;;;;;;;;4968086;28;20038;-84
2023/07/14 04:22:10;;;;;;;10.15;9.05;;;;;;;;;;4958688;28;20039;-84
2023/07/14 04:24:36;;;;;;;12.15;9.30;;;;;;;;;;4957523;28;20042;-84
2023/07/14 04:27:03;;;;;;;10.30;9.30;;;;;;;;;;4945896;28;20053;-85
2023/07/14 04:29:29;;;;;;;13.85;9.57;;;;;;;;;;4938025;28;20046;-84
2023/07/14 04:31:56;;;;;;;14.88;9.63;;;;;;;;;;4943815;28;20035;-84
2023/07/14 04:34:22;;;;;;;11.93;8.93;;;;;;;;;;4945676;28;20065;-85
2023/07/14 04:36:48;;;;;;;10.55;9.50;;;;;;;;;;4949057;28;20490;-85
2023/07/14 04:39:14;;;;;;;10.85;9.70;;;;;;;;;;4944997;28;21324;-84
2023/07/14 04:41:40;;;;;;;12.82;9.38;;;;;;;;;;4976220;28;20140;-84
2023/07/14 04:44:13;;;;;;;10.18;8.45;;;;;;;;;;4972157;28;20057;-85
2023/07/14 04:46:39;;;;;;;11.07;9.95;;;;;;;;;;4957222;28;20444;-85
2023/07/14 04:49:05;;;;;;;13.57;10.15;;;;;;;;;;4967271;28;20141;-85
2023/07/14 04:51:34;;;;;;;12.35;9.75;;;;;;;;;;4955712;28;20497;-85
2023/07/14 04:54:00;;;;;;;12.07;9.80;;;;;;;;;;4984843;28;20381;-85
2023/07/14 04:56:26;;;;;;;12.23;10.35;;;;;;;;;;4968003;28;20396;-84
2023/07/14 04:58:52;;;;;;;11.80;9.20;;;;;;;;;;4987461;28;20143;-84
2023/07/14 05:01:18;;;;;;;12.90;9.60;;;;;;;;;;4968267;28;20053;-84
2023/07/14 05:03:44;;;;;;;13.20;10.75;;;;;;;;;;4972694;28;20121;-84
2023/07/14 05:06:14;;;;;;;13.85;10.07;;;;;;;;;;4937737;28;20851;-84
2023/07/14 05:08:40;;;;;;;12.48;10.50;;;;;;;;;;4958349;28;20069;-84
2023/07/14 05:11:06;;;;;;;12.77;10.80;;;;;;;;;;4985056;28;20051;-84
2023/07/14 05:13:32;;;;;;;11.57;10.13;;;;;;;;;;4971218;28;20041;-84
2023/07/14 05:15:58;;;;;;;16.73;12.85;;;;;;;;;;4935682;28;20048;-84
2023/07/14 05:18:24;;;;;;;16.95;11.70;;;;;;;;;;4990742;28;20048;-84
2023/07/14 05:20:51;;;;;;;12.80;11.32;;;;;;;;;;4972531;28;20046;-84
2023/07/14 05:23:17;;;;;;;17.25;12.63;;;;;;;;;;4960726;28;20068;-84
2023/07/14 05:25:43;;;;;;;13.82;10.35;;;;;;;;;;4957629;28;20088;-84
2023/07/14 05:28:09;;;;;;;12.80;11.25;;;;;;;;;;4964657;28;20573;-83
2023/07/14 05:30:35;;;;;;;14.13;12.80;;;;;;;;;;4984103;28;20041;-84
2023/07/14 05:33:01;;;;;;;13.27;11.88;;;;;;;;;;4980505;28;20390;-84
2023/07/14 05:35:27;;;;;;;12.95;11.13;;;;;;;;;;4955118;28;20549;-83
2023/07/14 05:37:56;;;;;;;12.15;10.93;;;;;;;;;;4973301;28;20042;-84
2023/07/14 05:40:22;;;;;;;17.80;13.20;;;;;;;;;;4977041;28;20044;-85
2023/07/14 05:42:48;;;;;;;13.52;12.18;;;;;;;;;;4973679;28;20045;-83
2023/07/14 05:45:14;;;;;;;15.75;12.35;;;;;;;;;;4969444;28;21844;-83
2023/07/14 05:47:42;;;;;;;14.98;12.32;;;;;;;;;;4969034;28;20057;-84
2023/07/14 05:50:08;;;;;;;12.85;11.50;;;;;;;;;;4965106;28;20045;-84
2023/07/14 05:52:35;;;;;;;15.88;13.20;;;;;;;;;;4966590;28;20638;-84
2023/07/14 05:55:03;;;;;;;14.73;11.70;;;;;;;;;;4965897;28;20122;-84
2023/07/14 05:57:29;;;;;;;16.38;12.88;;;;;;;;;;4950552;28;20033;-84
2023/07/14 05:59:57;;;;;;;14.40;12.90;;;;;;;;;;4960023;28;20038;-84
2023/07/14 06:02:23;;;;;;;15.77;12.50;;;;;;;;;;4968250;28;20496;-82
2023/07/14 06:04:49;;;;;;;15.88;12.25;;;;;;;;;;4970335;28;20042;-82
2023/07/14 06:07:15;;;;;;;15.63;13.77;;;;;;;;;;4980437;28;20676;-82
2023/07/14 06:09:41;;;;;;;14.23;12.60;;;;;;;;;;4986002;28;20048;-82
2023/07/14 06:12:08;;;;;;;13.82;12.35;;;;;;;;;;4964190;28;20049;-82
2023/07/14 06:14:34;;;;;;;14.93;11.65;;;;;;;;;;4935677;28;20136;-82
2023/07/14 06:17:00;;;;;;;15.38;13.15;;;;;;;;;;4956009;28;20120;-82
2023/07/14 06:19:27;;;;;;;15.35;12.32;;;;;;;;;;4958467;28;20092;-82
2023/07/14 06:21:54;;;;;;;15.07;13.63;;;;;;;;;;4968715;28;20041;-82
2023/07/14 06:24:20;;;;;;;16.60;13.00;;;;;;;;;;4942311;28;20422;-82
2023/07/14 06:26:46;;;;;;;17.73;12.63;;;;;;;;;;4951968;28;20046;-82
2023/07/14 06:29:12;;;;;;;18.13;13.48;;;;;;;;;;4982559;28;20038;-82
2023/07/14 06:31:39;;;;;;;14.38;12.00;;;;;;;;;;4948183;28;20046;-82
2023/07/14 06:34:05;;;;;;;12.82;11.45;;;;;;;;;;4950995;28;20373;-82
2023/07/14 06:36:31;;;;;;;13.82;11.75;;;;;;;;;;4993687;28;20042;-81
2023/07/14 06:38:57;;;;;;;14.27;11.82;;;;;;;;;;4966577;28;20052;-85
2023/07/14 06:41:23;;;;;;;15.90;10.38;;;;;;;;;;4968034;28;20523;-85
2023/07/14 06:43:49;;;;;;;12.00;10.38;;;;;;;;;;4937174;28;20058;-85
2023/07/14 06:46:15;;;;;;;12.85;10.32;;;;;;;;;;4962671;28;20042;-85
2023/07/14 06:48:41;;;;;;;13.75;9.98;;;;;;;;;;4952954;28;20046;-85
2023/07/14 06:51:07;;;;;;;12.50;9.40;;;;;;;;;;4951036;28;20440;-85
2023/07/14 06:53:33;;;;;;;11.98;9.50;;;;;;;;;;4952818;28;20497;-85
2023/07/14 06:55:59;;;;;;;10.27;8.55;;;;;;;;;;4967395;28;20497;-86
2023/07/14 06:58:26;;;;;;;11.35;9.52;;;;;;;;;;4957762;28;20492;-85
2023/07/14 07:00:52;;;;;;;10.30;9.23;;;;;;;;;;4950156;28;20510;-85
2023/07/14 07:03:30;;;;;;;12.98;9.45;;;;;;;;;;4963984;28;20038;-84
2023/07/14 07:05:56;;;;;;;11.85;8.35;;;;;;;;;;4970199;28;20038;-85
2023/07/14 07:08:22;;;;;;;11.20;8.02;;;;;;;;;;4957936;28;20545;-85
2023/07/14 07:10:48;;;;;;;8.68;7.80;;;;;;;;;;4942075;28;20421;-85
2023/07/14 07:13:15;;;;;;;10.38;7.20;;;;;;;;;;4967214;28;22348;-85
2023/07/14 07:15:41;;;;;;;8.93;6.80;;;;;;;;;;4972396;28;20132;-85
2023/07/14 07:18:07;;;;;;;8.38;6.05;;;;;;;;;;4968494;28;20042;-85
2023/07/14 07:20:33;;;;;;;7.68;6.03;;;;;;;;;;4949406;28;20042;-85
2023/07/14 07:22:59;;;;;;;6.30;5.10;;;;;;;;;;4955322;28;20033;-86
2023/07/14 07:25:25;;;;;;;9.48;5.82;;;;;;;;;;4958241;28;20145;-85
2023/07/14 07:27:52;;;;;;;9.57;5.68;;;;;;;;;;4957401;28;20046;-85
2023/07/14 07:30:18;;;;;;;7.05;5.22;;;;;;;;;;4935473;28;20046;-85
2023/07/14 07:32:45;;;;;;;12.18;6.57;;;;;;;;;;4957678;28;20041;-85
2023/07/14 07:35:11;;;;;;;7.03;5.55;;;;;;;;;;4944454;28;20057;-85
2023/07/14 07:37:37;;;;;;;8.30;5.80;;;;;;;;;;4983381;28;20042;-85
2023/07/14 07:40:04;;;;;;;9.25;5.70;;;;;;;;;;4942885;28;20053;-85
2023/07/14 07:42:30;;;;;;;5.85;4.93;;;;;;;;;;4974593;28;20046;-86
2023/07/14 07:44:56;;;;;;;9.88;5.57;;;;;;;;;;4965725;28;20034;-84
2023/07/14 07:47:22;;;;;;;5.90;5.18;;;;;;;;;;4961480;28;20072;-84
2023/07/14 07:49:49;;;;;;;8.77;5.15;;;;;;;;;;4960652;28;20392;-83
2023/07/14 07:52:15;;;;;;;7.45;5.63;;;;;;;;;;4952679;28;22407;-83
2023/07/14 07:54:41;;;;;;;8.38;5.43;;;;;;;;;;4956924;28;20073;-84
2023/07/14 07:57:08;;;;;;;6.60;5.10;;;;;;;;;;4955770;28;20050;-84
2023/07/14 07:59:34;;;;;;;5.90;4.47;;;;;;;;;;4950717;28;20041;-84
2023/07/14 08:02:00;;;;;;;7.20;5.10;;;;;;;;;;4953685;28;20600;-83
2023/07/14 08:04:26;;;;;;;7.35;5.40;;;;;;;;;;4969339;28;20095;-83
2023/07/14 08:06:52;;;;;;;7.47;4.90;;;;;;;;;;4975939;28;20050;-83
2023/07/14 08:09:18;;;;;;;6.55;4.65;;;;;;;;;;4966018;28;20081;-83
2023/07/14 08:11:45;;;;;;;6.85;5.20;;;;;;;;;;4963385;28;20070;-83
2023/07/14 08:14:12;;;;;;;6.10;5.03;;;;;;;;;;4953399;28;20046;-83
2023/07/14 08:16:38;;;;;;;6.05;5.45;;;;;;;;;;4967531;28;20041;-83
2023/07/14 08:19:04;;;;;;;6.35;5.18;;;;;;;;;;4957884;28;20073;-83
2023/07/14 08:21:30;;;;;;;6.78;5.65;;;;;;;;;;4963150;28;20046;-83
2023/07/14 08:23:56;;;;;;;5.90;4.65;;;;;;;;;;4955402;28;20054;-83
2023/07/14 08:26:22;;;;;;;6.97;4.93;;;;;;;;;;4952286;28;20046;-83
2023/07/14 08:28:48;;;;;;;6.60;4.28;;;;;;;;;;4973386;28;20038;-83
2023/07/14 08:31:15;;;;;;;6.95;3.95;;;;;;;;;;4951884;28;21385;-83
2023/07/14 08:33:44;;;;;;;5.07;4.13;;;;;;;;;;4939686;28;20401;-83
2023/07/14 08:36:11;;;;;;;6.25;4.18;;;;;;;;;;4974772;28;20046;-83
2023/07/14 08:38:38;;;;;;;6.32;4.68;;;;;;;;;;4970713;28;20125;-83
2023/07/14 08:41:10;;;;;;;7.82;4.72;;;;;;;;;;4951092;28;20086;-83
2023/07/14 08:43:39;;;;;;;5.50;4.20;;;;;;;;;;4960427;28;20393;-83
2023/07/14 08:46:13;;;;;;;7.78;4.30;;;;;;;;;;4969003;28;20093;-83
2023/07/14 08:48:41;;;;;;;5.35;4.00;;;;;;;;;;4935585;28;20436;-83
2023/07/14 08:51:07;;;;;;;;;;;;;;;;;;4967492;28;20516;-83
2023/07/14 08:53:33;;;;;;;5.20;3.92;;;;;;;;;;4971710;28;19918;-83
2023/07/14 08:56:02;;;;;;;5.55;4.07;;;;;;;;;;4964291;28;20129;-83
2023/07/14 08:58:28;;;;;;;4.25;3.67;;;;;;;;;;4967992;28;20081;-83
2023/07/14 09:01:03;;;;;;;4.05;3.10;;;;;;;;;;4955686;28;20120;-84
2023/07/14 09:03:39;;;;;;;5.70;3.30;;;;;;;;;;4961133;28;20392;-83
2023/07/14 09:06:09;;;;;;;5.25;3.10;;;;;;;;;;4953272;28;20096;-83
2023/07/14 09:08:35;;;;;;;4.35;3.03;;;;;;;;;;4929603;28;20497;-83
2023/07/14 09:11:20;;;;;;;7.43;3.65;;;;;;;;;;4955485;28;20043;-83
2023/07/14 09:13:51;;;;;;;4.68;2.90;;;;;;;;;;4954792;28;20439;-83
2023/07/14 09:16:18;;;;;;;4.45;2.55;;;;;;;;;;4956373;28;20048;-83
2023/07/14 09:18:44;;;;;;;5.73;2.73;;;;;;;;;;4977612;28;20076;-83
2023/07/14 09:21:18;;;;;;;3.97;2.65;;;;;;;;;;4947553;28;20105;-83
2023/07/14 09:24:08;;;;;;;5.22;2.28;;;;;;;;;;4959803;28;20046;-83
2023/07/14 09:26:35;;;;;;;2.60;2.20;;;;;;;;;;4949379;28;20122;-83
2023/07/14 09:29:07;;;;;;;3.50;2.28;;;;;;;;;;4960495;28;20043;-83
2023/07/14 09:31:37;;;;;;;5.78;2.47;;;;;;;;;;4960639;28;20050;-83
2023/07/14 09:34:04;;;;;;;4.05;2.40;;;;;;;;;;4972000;28;20042;-83
2023/07/14 09:36:30;;;;;;;3.95;2.45;;;;;;;;;;4943111;28;20034;-83
2023/07/14 09:39:18;;;;;;;3.88;2.53;;;;;;;;;;4934274;28;20449;-83
2023/07/14 09:41:46;;;;;;;6.15;2.15;;;;;;;;;;4951692;28;20084;-83
2023/07/14 09:44:12;;;;;;;4.50;2.50;;;;;;;;;;4935043;28;20175;-84
2023/07/14 09:46:39;;;;;;;4.20;2.72;;;;;;;;;;4955789;28;20042;-83
2023/07/14 09:57:14;;;;;;;;;;;;;;;;;;;;;
2023/07/14 10:04:39;;;;;;;3.47;2.13;;;;;;;;;;4809959;29;20213;-85
2023/07/14 10:17:48;;;;;;;6.43;2.65;;;;;;;;;;4787961;29;20050;-87
2023/07/14 10:28:09;;;;;;;;;;;;;;;;;;;;;
2023/07/14 10:30:57;;;;;;;4.20;3.10;;;;;;;;;;4799155;29;20054;-85
2023/07/14 10:33:25;;;;;;;3.58;2.75;;;;;;;;;;4808078;29;20045;-85
2023/07/14 10:38:59;;;;;;;7.97;3.13;;;;;;;;;;4878827;29;19919;-85
2023/07/14 10:45:14;;;;;;;3.92;2.90;;;;;;;;;;4890785;29;21592;-85
2023/07/14 10:47:49;;;;;;;5.25;3.10;;;;;;;;;;4891561;29;20059;-85
2023/07/14 10:50:17;;;;;;;4.60;3.17;;;;;;;;;;4954552;28;21369;-85
2023/07/14 10:52:44;;;;;;;4.53;3.08;;;;;;;;;;4977481;28;20037;-85
2023/07/14 10:55:17;;;;;;;4.15;2.72;;;;;;;;;;4988267;28;20085;-85
2023/07/14 10:57:47;;;;;;;5.13;3.28;;;;;;;;;;4956888;28;20033;-85
2023/07/14 11:00:19;;;;;;;5.45;4.30;;;;;;;;;;4973989;28;20038;-85
2023/07/14 11:03:04;;;;;;;4.22;2.83;;;;;;;;;;4959208;28;20052;-85
2023/07/14 11:05:30;;;;;;;3.47;3.03;;;;;;;;;;4990971;28;20073;-85
2023/07/14 11:07:56;;;;;;;4.72;3.13;;;;;;;;;;4938934;28;20129;-85
2023/07/14 11:10:26;;;;;;;4.68;2.92;;;;;;;;;;4974413;28;20049;-85
2023/07/14 11:12:58;;;;;;;3.75;2.90;;;;;;;;;;4977725;28;20052;-85
2023/07/14 11:15:26;;;;;;;5.75;3.17;;;;;;;;;;4963692;28;20127;-84
2023/07/14 11:18:08;;;;;;;3.88;2.85;;;;;;;;;;4966764;28;20132;-85
2023/07/14 11:20:41;;;;;;;4.78;2.90;;;;;;;;;;4976422;28;20424;-84
2023/07/14 11:23:07;;;;;;;5.38;2.67;;;;;;;;;;4957871;28;20056;-85
2023/07/14 11:25:39;;;;;;;6.05;2.90;;;;;;;;;;4973750;28;20065;-85
2023/07/14 11:28:11;;;;;;;5.95;2.70;;;;;;;;;;4980652;28;20038;-85
2023/07/14 11:30:39;;;;;;;5.00;3.05;;;;;;;;;;4972738;28;20050;-84
2023/07/14 11:33:17;;;;;;;5.30;2.70;;;;;;;;;;4982647;28;20052;-84
2023/07/14 11:35:56;;;;;;;4.70;3.20;;;;;;;;;;4978868;28;20038;-84
2023/07/14 11:38:38;;;;;;;4.88;2.58;;;;;;;;;;4981792;28;20038;-85
2023/07/14 11:41:04;;;;;;;4.07;2.35;;;;;;;;;;4953264;28;20072;-85
2023/07/14 11:43:30;;;;;;;5.28;2.97;;;;;;;;;;4979929;28;20068;-85
2023/07/14 11:46:02;;;;;;;3.97;2.25;;;;;;;;;;4970063;28;20072;-85
2023/07/14 11:49:03;;;;;;;4.72;2.97;;;;;;;;;;4953486;28;20038;-85
2023/07/14 11:51:48;;;;;;;5.43;2.78;;;;;;;;;;4952122;28;20505;-85
2023/07/14 11:54:24;;;;;;;6.35;2.70;;;;;;;;;;4965212;28;20389;-84
2023/07/14 11:56:58;;;;;;;4.13;2.75;;;;;;;;;;4957088;28;20042;-86
2023/07/14 11:59:26;;;;;;;3.55;2.67;;;;;;;;;;4937925;28;20046;-86
2023/07/14 12:01:53;;;;;;;2.97;2.20;;;;;;;;;;4940107;28;20077;-87
2023/07/14 12:04:28;;;;;;;2.53;2.25;;;;;;;;;;4967997;28;20180;-87
2023/07/14 12:07:04;;;;;;;2.92;2.20;;;;;;;;;;4957242;28;20580;-87
2023/07/14 12:09:33;;;;;;;3.03;2.08;;;;;;;;;;4962301;28;20565;-85
2023/07/14 12:11:59;;;;;;;3.35;2.28;;;;;;;;;;4945969;28;20401;-85
2023/07/14 12:14:26;;;;;;;4.22;2.53;;;;;;;;;;4972986;28;20042;-85
2023/07/14 12:16:52;;;;;;;4.97;2.50;;;;;;;;;;4953753;28;20093;-84
2023/07/14 12:19:21;;;;;;;2.80;2.10;;;;;;;;;;4950447;28;20035;-84
2023/07/14 12:21:56;;;;;;;3.58;2.28;;;;;;;;;;4956798;28;20192;-85
2023/07/14 12:24:22;;;;;;;4.30;2.08;;;;;;;;;;4945630;28;20567;-85
2023/07/14 12:26:49;;;;;;;3.60;2.17;;;;;;;;;;4967044;28;20058;-85
2023/07/14 12:29:16;;;;;;;4.57;2.10;;;;;;;;;;4953794;28;20047;-85
2023/07/14 12:31:42;;;;;;;4.55;2.22;;;;;;;;;;4957776;28;20050;-85
2023/07/14 12:34:18;;;;;;;3.42;2.28;;;;;;;;;;4955787;28;20042;-85
2023/07/14 12:36:45;;;;;;;3.78;2.50;;;;;;;;;;4974022;28;20413;-85
2023/07/14 12:39:11;;;;;;;3.55;2.50;;;;;;;;;;4964608;28;20129;-84
2023/07/14 12:41:38;;;;;;;3.45;2.60;;;;;;;;;;4944462;28;20042;-85
2023/07/14 12:44:04;;;;;;;2.50;2.30;;;;;;;;;;4954566;28;20069;-85
2023/07/14 12:46:31;;;;;;;4.10;2.53;;;;;;;;;;4946048;28;20050;-85
2023/07/14 12:49:10;;;;;;;5.43;2.67;;;;;;;;;;4942009;28;20046;-85
2023/07/14 12:51:36;;;;;;;3.28;2.35;;;;;;;;;;4948481;28;20042;-85
2023/07/14 12:54:04;;;;;;;2.88;2.42;;;;;;;;;;4931835;28;20129;-85
2023/07/14 12:56:30;;;;;;;3.97;2.53;;;;;;;;;;4943147;28;20045;-85
2023/07/14 12:58:56;;;;;;;5.13;2.83;;;;;;;;;;4948688;28;20124;-85
2023/07/14 13:01:22;;;;;;;3.05;2.72;;;;;;;;;;4974330;28;20034;-85
2023/07/14 13:03:49;;;;;;;7.00;2.72;;;;;;;;;;4953280;28;20055;-85
2023/07/14 13:06:16;;;;;;;3.58;2.47;;;;;;;;;;4949592;28;20049;-85
2023/07/14 13:08:44;;;;;;;4.37;2.53;;;;;;;;;;4970788;28;20094;-85
2023/07/14 13:11:14;;;;;;;4.50;2.92;;;;;;;;;;4964516;28;20047;-85
2023/07/14 13:13:41;;;;;;;4.43;2.72;;;;;;;;;;4953861;28;20481;-85
2023/07/14 13:16:08;;;;;;;4.97;2.30;;;;;;;;;;4942785;28;20035;-85
2023/07/14 13:18:36;;;;;;;5.03;2.80;;;;;;;;;;4952505;28;20043;-85
2023/07/14 13:21:04;;;;;;;6.40;3.00;;;;;;;;;;4960723;28;20061;-85
2023/07/14 13:23:30;;;;;;;3.50;2.70;;;;;;;;;;4959337;28;20042;-85
2023/07/14 13:26:05;;;;;;;3.10;2.20;;;;;;;;;;4947866;28;20399;-85
2023/07/14 13:28:34;;;;;;;3.38;2.30;;;;;;;;;;4976765;28;20050;-85
2023/07/14 13:31:00;;;;;;;4.15;2.78;;;;;;;;;;4968623;28;20425;-85
2023/07/14 13:33:28;;;;;;;5.15;2.85;;;;;;;;;;4960565;28;20121;-84
2023/07/14 13:35:59;;;;;;;4.05;2.97;;;;;;;;;;4974381;28;20039;-85
2023/07/14 13:38:25;;;;;;;3.67;2.53;;;;;;;;;;4976627;28;20073;-85
2023/07/14 13:40:52;;;;;;;3.97;2.88;;;;;;;;;;4957557;28;20264;-85
2023/07/14 13:43:20;;;;;;;5.43;2.63;;;;;;;;;;4971334;28;20485;-85
2023/07/14 13:45:56;;;;;;;4.38;2.75;;;;;;;;;;4949593;28;20057;-85
2023/07/14 13:48:24;;;;;;;4.15;2.47;;;;;;;;;;4977149;28;20516;-87
2023/07/14 13:50:50;;;;;;;4.95;2.95;;;;;;;;;;4975969;28;20050;-87
2023/07/14 13:53:16;;;;;;;3.63;2.67;;;;;;;;;;4939007;28;20047;-84
2023/07/14 13:55:42;;;;;;;2.97;2.50;;;;;;;;;;4942598;28;20374;-84
2023/07/14 13:58:11;;;;;;;3.65;2.63;;;;;;;;;;4966324;28;20432;-84
2023/07/14 14:00:37;;;;;;;5.70;2.67;;;;;;;;;;4977099;28;20107;-84
2023/07/14 14:03:04;;;;;;;4.90;2.50;;;;;;;;;;4947761;28;20524;-85
2023/07/14 14:05:33;;;;;;;3.10;2.65;;;;;;;;;;4980656;28;20393;-84
2023/07/14 14:07:59;;;;;;;4.22;2.80;;;;;;;;;;4952266;28;20124;-84
2023/07/14 14:10:27;;;;;;;3.38;2.50;;;;;;;;;;4965164;28;20038;-84
2023/07/14 14:12:53;;;;;;;;;;;;;;;;;;4946901;28;20049;-84
2023/07/14 14:15:21;;;;;;;3.00;2.33;;;;;;;;;;4951097;28;19922;-85
2023/07/14 14:17:47;;;;;;;;;;;;;;;;;;4948445;28;20077;-84
2023/07/14 14:20:14;;;;;;;3.58;2.38;;;;;;;;;;4951914;28;19965;-84
2023/07/14 14:22:40;;;;;;;3.38;2.20;;;;;;;;;;4956901;28;20366;-84
2023/07/14 14:25:14;;;;;;;3.60;2.38;;;;;;;;;;4965470;28;20406;-85
2023/07/14 14:27:40;;;;;;;3.60;2.28;;;;;;;;;;4945350;28;20043;-84
2023/07/14 14:30:07;;;;;;;3.67;2.08;;;;;;;;;;4968819;28;20046;-85
2023/07/14 14:32:34;;;;;;;3.22;1.77;;;;;;;;;;4954241;28;20042;-84
2023/07/14 14:35:01;;;;;;;3.38;2.30;;;;;;;;;;4939809;28;20045;-85
2023/07/14 14:37:27;;;;;;;3.72;2.70;;;;;;;;;;4943351;28;20096;-84
2023/07/14 14:39:54;;;;;;;3.47;2.40;;;;;;;;;;4955944;28;20138;-85
2023/07/14 14:42:20;;;;;;;5.93;2.60;;;;;;;;;;4937228;28;20043;-85
2023/07/14 14:44:46;;;;;;;4.15;2.50;;;;;;;;;;4958669;28;20042;-84
2023/07/14 14:47:17;;;;;;;4.18;2.22;;;;;;;;;;4971732;28;20054;-85
2023/07/14 14:49:43;;;;;;;5.88;2.75;;;;;;;;;;4960761;28;20037;-84
2023/07/14 14:52:09;;;;;;;3.22;2.30;;;;;;;;;;4991380;28;20053;-84
2023/07/14 14:54:36;;;;;;;4.82;2.40;;;;;;;;;;4991613;28;20400;-84
2023/07/14 14:57:02;;;;;;;3.53;2.50;;;;;;;;;;4976669;28;20133;-84
2023/07/14 14:59:28;;;;;;;3.70;2.70;;;;;;;;;;4964305;28;20385;-84
2023/07/14 15:01:54;;;;;;;3.38;2.40;;;;;;;;;;4977138;28;20692;-85
2023/07/14 15:04:24;;;;;;;3.83;2.90;;;;;;;;;;4992201;28;20506;-85
2023/07/14 15:06:53;;;;;;;4.53;2.65;;;;;;;;;;4968037;28;20037;-83
2023/07/14 15:09:19;;;;;;;3.13;2.80;;;;;;;;;;4954921;28;20030;-85
2023/07/14 15:11:46;;;;;;;6.65;2.78;;;;;;;;;;4940284;28;20437;-84
2023/07/14 15:14:31;;;;;;;2.88;2.60;;;;;;;;;;4946272;28;20610;-84
2023/07/14 15:23:02;;;;;;;6.30;2.50;;;;;;;;;;4982797;28;20112;-85
2023/07/14 15:26:04;;;;;;;3.65;2.40;;;;;;;;;;4963192;28;20552;-85